Terminal Aerodrome Forecast
Issued by NWS

Home | Current Version | Previous Version | Text Only | Print | Product List | Glossary On
Versions: 1 2 3 4 5 6 7 8 9 10 11 12 13 14 15 16 17 18 19
000
FTUS45 KSLC 221728
TAFENV
TAF
KENV 221728Z 2218/2318 13009KT P6SM SCT080
     FM230300 33013G20KT P6SM VCSH SCT050 BKN080
     FM230900 32011KT P6SM VCSH SCT050 BKN070
     FM231500 35008KT P6SM SCT060 BKN120=

USA.gov is the U.S. government's official web portal to all federal, state and local government web resources and services.